createdAt,value
2022-10-21T00:00:16.055Z,7.05
2022-10-21T00:02:21.828Z,8.30
2022-10-21T00:04:26.849Z,8.13
2022-10-21T00:06:31.657Z,6.10
2022-10-21T00:08:39.983Z,5.95
2022-10-21T00:10:44.715Z,8.88
2022-10-21T00:12:49.505Z,6.93
2022-10-21T00:14:56.453Z,7.40
2022-10-21T00:17:02.467Z,9.30
2022-10-21T00:19:07.226Z,6.35
2022-10-21T00:21:14.883Z,7.10
2022-10-21T00:23:19.633Z,12.45
2022-10-21T00:25:27.114Z,8.60
2022-10-21T00:27:31.914Z,9.65
2022-10-21T00:29:38.037Z,10.25
2022-10-21T00:31:42.818Z,7.65
2022-10-21T00:33:47.583Z,8.30
2022-10-21T00:35:55.999Z,9.20
2022-10-21T00:38:00.858Z,9.40
2022-10-21T00:40:05.778Z,8.32
2022-10-21T00:42:19.180Z,7.05
2022-10-21T00:44:25.302Z,7.78
2022-10-21T00:46:39.905Z,7.10
2022-10-21T00:48:56.976Z,6.85
2022-10-21T00:51:06.019Z,7.78
2022-10-21T00:53:13.802Z,8.73
2022-10-21T00:55:18.623Z,8.80
2022-10-21T00:57:28.380Z,10.82
2022-10-21T00:59:38.756Z,7.50
2022-10-21T01:01:43.562Z,6.78
2022-10-21T01:03:48.463Z,7.45
2022-10-21T01:05:53.421Z,8.38
2022-10-21T01:07:59.038Z,6.75
2022-10-21T01:10:03.954Z,7.15
2022-10-21T01:12:17.585Z,8.07
2022-10-21T01:14:51.190Z,7.50
2022-10-21T01:17:15.511Z,10.60
2022-10-21T01:20:04.856Z,10.32
2022-10-21T01:22:19.068Z,15.05
2022-10-21T01:24:51.367Z,24.33
2022-10-21T01:27:13.721Z,28.15
2022-10-21T01:29:38.495Z,39.33
2022-10-21T01:31:50.081Z,40.10
2022-10-21T01:34:01.319Z,38.42
2022-10-21T01:36:17.005Z,42.13
2022-10-21T01:38:26.942Z,39.72
2022-10-21T01:40:37.395Z,37.95
2022-10-21T01:42:45.866Z,31.70
2022-10-21T01:44:57.780Z,29.20
2022-10-21T01:47:09.514Z,27.20
2022-10-21T01:49:20.449Z,24.17
2022-10-21T01:51:28.920Z,19.60
2022-10-21T01:53:39.682Z,20.00
2022-10-21T01:55:46.067Z,20.83
2022-10-21T01:57:57.575Z,15.38
2022-10-21T02:00:04.369Z,13.38
2022-10-21T02:02:13.513Z,12.52
2022-10-21T02:04:22.632Z,10.18
2022-10-21T02:06:27.912Z,8.63
2022-10-21T02:08:32.990Z,12.65
2022-10-21T02:10:41.347Z,8.75
2022-10-21T02:12:48.792Z,11.73
2022-10-21T02:14:56.205Z,10.02
2022-10-21T02:17:02.120Z,9.77
2022-10-21T02:19:15.894Z,9.85
2022-10-21T02:21:26.538Z,10.90
2022-10-21T02:23:41.076Z,8.20
2022-10-21T02:25:49.028Z,7.88
2022-10-21T02:27:54.345Z,9.00
2022-10-21T02:32:19.173Z,8.93
2022-10-21T02:34:36.734Z,8.88
2022-10-21T02:36:51.399Z,11.25
2022-10-21T02:39:02.972Z,12.60
2022-10-21T02:41:12.545Z,8.85
2022-10-21T02:43:22.564Z,9.25
2022-10-21T02:45:27.364Z,8.30
2022-10-21T02:47:32.202Z,11.35
2022-10-21T02:49:39.537Z,9.02
2022-10-21T02:51:45.257Z,11.80
2022-10-21T02:53:50.035Z,9.43
2022-10-21T02:55:54.882Z,9.73
2022-10-21T02:58:00.006Z,11.60
2022-10-21T03:02:09.361Z,8.98
2022-10-21T03:04:14.066Z,8.07
2022-10-21T03:06:21.649Z,8.65
2022-10-21T03:08:26.519Z,9.50
2022-10-21T03:10:31.330Z,9.18
2022-10-21T03:12:36.168Z,8.07
2022-10-21T03:14:40.868Z,8.05
2022-10-21T03:16:45.672Z,9.07
2022-10-21T03:18:50.718Z,10.05
2022-10-21T03:20:55.538Z,8.85
2022-10-21T03:23:02.910Z,10.18
2022-10-21T03:25:08.890Z,8.00
2022-10-21T03:27:13.639Z,11.63
2022-10-21T03:29:18.466Z,14.35
2022-10-21T03:31:26.179Z,8.07
2022-10-21T03:33:31.013Z,8.15
2022-10-21T03:35:35.821Z,10.05
2022-10-21T03:37:40.799Z,8.85
2022-10-21T03:39:48.170Z,10.95
2022-10-21T03:41:52.890Z,8.18
2022-10-21T03:43:57.775Z,10.98
2022-10-21T03:46:02.621Z,8.77
2022-10-21T03:48:07.621Z,9.93
2022-10-21T03:50:15.093Z,11.75
2022-10-21T03:52:23.989Z,14.35
2022-10-21T03:54:30.068Z,8.32
2022-10-21T03:56:37.491Z,11.80
2022-10-21T03:58:42.595Z,10.55
2022-10-21T04:02:52.146Z,9.13
2022-10-21T04:04:56.888Z,9.90
2022-10-21T04:07:01.657Z,8.20
2022-10-21T04:09:06.778Z,7.60
2022-10-21T04:13:18.809Z,8.27
2022-10-21T04:15:23.560Z,8.98
2022-10-21T04:17:29.790Z,9.30
2022-10-21T04:19:34.621Z,10.95
2022-10-21T04:21:39.484Z,13.40
2022-10-21T04:23:44.577Z,9.77
2022-10-21T04:27:54.290Z,10.60
2022-10-21T04:30:01.602Z,9.25
2022-10-21T04:32:06.555Z,7.72
2022-10-21T04:34:11.306Z,8.55
2022-10-21T04:36:16.018Z,10.23
2022-10-21T04:38:20.796Z,7.78
2022-10-21T04:40:31.373Z,7.15
2022-10-21T04:42:36.134Z,8.57
2022-10-21T04:44:41.529Z,12.07
2022-10-21T04:46:48.968Z,8.80
2022-10-21T04:48:53.727Z,9.40
2022-10-21T04:50:59.161Z,9.48
2022-10-21T04:53:03.985Z,9.88
2022-10-21T04:55:09.902Z,9.55
2022-10-21T04:57:14.679Z,9.50
2022-10-21T04:59:19.425Z,11.45
2022-10-21T05:01:27.608Z,12.80
2022-10-21T05:03:35.236Z,11.60
2022-10-21T05:05:40.107Z,10.50
2022-10-21T05:07:44.886Z,9.90
2022-10-21T05:09:49.597Z,10.75
2022-10-21T05:11:54.403Z,9.88
2022-10-21T05:13:59.268Z,11.02
2022-10-21T05:16:05.417Z,10.23
2022-10-21T05:18:10.279Z,9.77
2022-10-21T05:20:17.778Z,9.77
2022-10-21T05:22:22.457Z,11.60
2022-10-21T05:24:27.421Z,9.98
2022-10-21T05:26:32.211Z,10.43
2022-10-21T05:28:37.000Z,9.00
2022-10-21T05:33:06.723Z,11.07
2022-10-21T05:35:12.156Z,13.30
2022-10-21T05:37:19.735Z,11.60
2022-10-21T05:39:24.490Z,9.52
2022-10-21T05:41:31.664Z,14.73
2022-10-21T05:43:36.456Z,10.02
2022-10-21T05:45:41.234Z,13.30
2022-10-21T05:47:46.316Z,9.48
2022-10-21T05:51:55.558Z,12.35
2022-10-21T05:54:03.902Z,11.60
2022-10-21T05:56:10.803Z,14.75
2022-10-21T05:58:15.569Z,13.55
2022-10-21T06:00:20.541Z,15.23
2022-10-21T06:02:25.960Z,16.00
2022-10-21T06:04:32.891Z,13.32
2022-10-21T06:06:40.957Z,14.40
2022-10-21T06:08:45.771Z,16.05
2022-10-21T06:10:53.214Z,16.27
2022-10-21T06:12:57.934Z,18.05
2022-10-21T06:15:02.808Z,17.80
2022-10-21T06:17:07.735Z,14.25
2022-10-21T06:19:12.479Z,16.27
2022-10-21T06:21:17.464Z,16.15
2022-10-21T06:23:22.284Z,16.33
2022-10-21T06:25:27.044Z,18.58
2022-10-21T06:27:34.433Z,14.77
2022-10-21T06:29:39.164Z,12.48
2022-10-21T06:31:43.872Z,15.70
2022-10-21T06:33:48.623Z,12.82
2022-10-21T06:35:53.427Z,13.07
2022-10-21T06:37:58.145Z,12.48
2022-10-21T06:40:04.656Z,13.70
2022-10-21T06:42:09.393Z,13.50
2022-10-21T06:44:20.561Z,12.13
2022-10-21T06:46:29.475Z,10.65
2022-10-21T06:48:34.296Z,13.30
2022-10-21T06:50:40.147Z,9.65
2022-10-21T06:52:44.987Z,9.63
2022-10-21T06:54:50.727Z,12.88
2022-10-21T06:56:55.600Z,11.20
2022-10-21T06:59:01.914Z,12.13
2022-10-21T07:01:27.430Z,8.98
2022-10-21T07:03:38.409Z,14.65
2022-10-21T07:05:43.225Z,13.43
2022-10-21T07:07:48.169Z,12.20
2022-10-21T07:09:53.097Z,13.38
2022-10-21T07:11:58.245Z,10.88
2022-10-21T07:16:10.198Z,14.57
2022-10-21T07:18:17.520Z,15.68
2022-10-21T07:20:22.249Z,9.90
2022-10-21T07:22:26.999Z,11.43
2022-10-21T07:24:31.733Z,10.35
2022-10-21T07:26:37.487Z,13.88
2022-10-21T07:28:46.962Z,16.92
2022-10-21T07:30:51.864Z,11.68
2022-10-21T07:32:56.604Z,13.63
2022-10-21T07:35:03.955Z,9.95
2022-10-21T07:37:08.917Z,9.27
2022-10-21T07:39:16.973Z,14.93
2022-10-21T07:41:25.752Z,11.38
2022-10-21T07:43:30.583Z,10.95
2022-10-21T07:45:35.386Z,12.75
2022-10-21T07:47:40.389Z,12.02
2022-10-21T07:49:45.380Z,11.90
2022-10-21T07:51:53.933Z,12.93
2022-10-21T07:54:02.699Z,11.38
2022-10-21T07:56:10.359Z,11.90
2022-10-21T07:58:15.123Z,10.30
2022-10-21T08:00:19.978Z,10.90
2022-10-21T08:02:26.479Z,12.95
2022-10-21T08:04:33.452Z,11.52
2022-10-21T08:06:38.718Z,12.57
2022-10-21T08:08:46.913Z,12.05
2022-10-21T08:10:52.433Z,13.82
2022-10-21T08:12:58.156Z,9.40
2022-10-21T08:15:03.036Z,10.77
2022-10-21T08:17:07.778Z,10.50
2022-10-21T08:19:17.981Z,12.00
2022-10-21T08:21:22.737Z,13.20
2022-10-21T08:23:28.937Z,12.45
2022-10-21T08:25:36.521Z,11.05
2022-10-21T08:27:41.378Z,13.68
2022-10-21T08:29:50.316Z,10.77
2022-10-21T08:31:55.459Z,9.95
2022-10-21T08:34:00.388Z,14.63
2022-10-21T08:36:08.681Z,11.13
2022-10-21T08:38:14.351Z,10.00
2022-10-21T08:40:19.815Z,11.93
2022-10-21T08:42:28.367Z,11.85
2022-10-21T08:44:40.632Z,12.15
2022-10-21T08:46:50.234Z,12.30
2022-10-21T08:49:01.829Z,11.20
2022-10-21T08:51:08.982Z,14.18
2022-10-21T08:53:19.116Z,12.93
2022-10-21T08:55:26.908Z,10.27
2022-10-21T08:57:37.474Z,14.23
2022-10-21T08:59:43.414Z,15.30
2022-10-21T09:01:57.552Z,15.05
2022-10-21T09:04:09.142Z,10.85
2022-10-21T09:06:24.411Z,11.73
2022-10-21T09:08:37.833Z,17.25
2022-10-21T09:10:56.374Z,13.15
2022-10-21T09:13:08.659Z,15.65
2022-10-21T09:15:25.493Z,12.82
2022-10-21T09:17:56.344Z,14.45
2022-10-21T09:20:07.235Z,10.73
2022-10-21T09:22:35.258Z,15.38
2022-10-21T09:24:49.138Z,16.17
2022-10-21T09:26:55.915Z,10.52
2022-10-21T09:29:05.627Z,13.80
2022-10-21T09:31:18.527Z,13.93
2022-10-21T09:33:27.308Z,16.50
2022-10-21T09:35:39.449Z,15.65
2022-10-21T09:37:48.752Z,15.52
2022-10-21T09:40:02.954Z,15.10
2022-10-21T09:42:12.488Z,13.63
2022-10-21T09:44:30.661Z,12.70
2022-10-21T09:47:00.106Z,12.60
2022-10-21T09:51:37.157Z,14.50
2022-10-21T09:53:54.142Z,15.05
2022-10-21T09:56:05.590Z,15.55
2022-10-21T09:58:10.351Z,13.38
2022-10-21T10:00:18.176Z,13.88
2022-10-21T10:02:33.772Z,14.40
2022-10-21T10:04:41.854Z,14.15
2022-10-21T10:06:49.460Z,16.27
2022-10-21T10:08:54.330Z,15.13
2022-10-21T10:11:19.746Z,12.43
2022-10-21T10:13:29.233Z,11.73
2022-10-21T10:15:41.728Z,15.43
2022-10-21T10:17:49.500Z,16.70
2022-10-21T10:20:20.478Z,16.92
2022-10-21T10:22:32.557Z,15.82
2022-10-21T10:24:40.639Z,16.98
2022-10-21T10:26:55.882Z,11.93
2022-10-21T10:29:06.095Z,13.73
2022-10-21T10:31:13.625Z,14.65
2022-10-21T10:33:22.514Z,12.75
2022-10-21T10:35:32.778Z,12.50
2022-10-21T10:37:50.288Z,14.77
2022-10-21T10:40:03.643Z,16.30
2022-10-21T10:42:12.771Z,17.10
2022-10-21T10:44:32.234Z,20.60
2022-10-21T10:46:50.551Z,17.83
2022-10-21T10:48:57.326Z,14.48
2022-10-21T10:51:05.627Z,14.93
2022-10-21T10:53:37.739Z,14.88
2022-10-21T10:55:45.510Z,13.57
2022-10-21T10:58:11.406Z,15.95
2022-10-21T11:00:23.152Z,16.30
2022-10-21T11:02:44.565Z,16.67
2022-10-21T11:05:08.382Z,16.27
2022-10-21T11:07:25.508Z,20.98
2022-10-21T11:09:30.434Z,19.65
2022-10-21T11:11:42.152Z,22.75
2022-10-21T11:13:51.450Z,16.00
2022-10-21T11:16:11.545Z,16.00
2022-10-21T11:18:25.646Z,16.80
2022-10-21T11:20:41.267Z,19.42
2022-10-21T11:22:55.831Z,17.65
2022-10-21T11:25:05.536Z,19.48
2022-10-21T11:27:23.268Z,18.67
2022-10-21T11:29:38.540Z,13.45
2022-10-21T11:32:10.716Z,10.48
2022-10-21T11:34:36.590Z,15.60
2022-10-21T11:36:50.074Z,13.88
2022-10-21T11:39:29.588Z,13.25
2022-10-21T11:41:43.273Z,11.80
2022-10-21T11:44:02.405Z,11.23
2022-10-21T11:46:19.334Z,11.40
2022-10-21T11:48:36.861Z,10.77
2022-10-21T11:51:06.454Z,11.00
2022-10-21T11:53:27.751Z,12.60
2022-10-21T11:55:43.310Z,9.73
2022-10-21T11:57:56.340Z,11.45
2022-10-21T12:00:09.110Z,10.55
2022-10-21T12:02:22.337Z,11.48
2022-10-21T12:04:47.236Z,12.32
2022-10-21T12:07:11.103Z,10.77
2022-10-21T12:09:23.282Z,10.02
2022-10-21T12:11:35.806Z,14.43
2022-10-21T12:13:45.729Z,12.65
2022-10-21T12:15:54.569Z,11.13
2022-10-21T12:18:02.065Z,9.02
2022-10-21T12:20:11.872Z,11.00
2022-10-21T12:22:19.343Z,11.40
2022-10-21T12:24:32.251Z,13.25
2022-10-21T12:26:44.603Z,14.10
2022-10-21T12:28:58.088Z,13.55
2022-10-21T12:31:07.929Z,12.23
2022-10-21T12:33:20.403Z,10.65
2022-10-21T12:35:45.884Z,9.90
2022-10-21T12:38:28.088Z,10.48
2022-10-21T12:40:43.003Z,8.88
2022-10-21T12:42:50.301Z,8.20
2022-10-21T12:44:56.142Z,12.18
2022-10-21T12:47:05.709Z,12.27
2022-10-21T12:49:26.057Z,14.63
2022-10-21T12:51:34.821Z,11.90
2022-10-21T12:56:30.279Z,9.32
2022-10-21T12:58:39.572Z,11.93
2022-10-21T13:01:00.400Z,9.80
2022-10-21T13:03:07.969Z,9.02
2022-10-21T13:05:12.776Z,11.65
2022-10-21T13:07:40.658Z,9.75
2022-10-21T13:10:26.474Z,10.60
2022-10-21T13:12:34.345Z,9.43
2022-10-21T13:14:45.735Z,11.90
2022-10-21T13:16:50.686Z,7.55
2022-10-21T13:21:01.916Z,9.75
2022-10-21T13:23:41.666Z,12.70
2022-10-21T13:25:52.269Z,9.40
2022-10-21T13:28:20.794Z,11.68
2022-10-21T13:30:53.651Z,11.93
2022-10-21T13:33:07.105Z,7.50
2022-10-21T13:35:34.561Z,8.30
2022-10-21T13:37:42.722Z,9.63
2022-10-21T13:39:47.643Z,11.73
2022-10-21T13:42:06.665Z,11.85
2022-10-21T13:44:31.781Z,9.57
2022-10-21T13:46:43.667Z,7.47
2022-10-21T13:48:51.599Z,8.75
2022-10-21T13:50:59.516Z,9.10
2022-10-21T13:53:36.412Z,8.65
2022-10-21T13:55:44.023Z,12.07
2022-10-21T13:57:53.809Z,11.15
2022-10-21T14:00:07.732Z,10.38
2022-10-21T14:02:26.721Z,6.50
2022-10-21T14:04:34.420Z,11.18
2022-10-21T14:06:43.198Z,9.65
2022-10-21T14:08:50.035Z,12.43
2022-10-21T14:10:56.193Z,6.85
2022-10-21T14:13:04.083Z,8.73
2022-10-21T14:15:18.169Z,8.65
2022-10-21T14:17:28.721Z,12.02
2022-10-21T14:19:37.831Z,9.85
2022-10-21T14:21:48.903Z,8.18
2022-10-21T14:23:54.555Z,10.55
2022-10-21T14:26:07.303Z,13.40
2022-10-21T14:28:18.937Z,7.53
2022-10-21T14:30:26.883Z,10.45
2022-10-21T14:32:32.169Z,7.47
2022-10-21T14:34:38.881Z,9.65
2022-10-21T14:37:09.434Z,6.32
2022-10-21T14:39:23.031Z,7.25
2022-10-21T14:41:35.534Z,9.40
2022-10-21T14:43:44.941Z,10.73
2022-10-21T14:45:53.323Z,6.50
2022-10-21T14:48:05.397Z,10.40
2022-10-21T14:50:22.324Z,8.38
2022-10-21T14:52:34.780Z,7.88
2022-10-21T14:54:45.693Z,11.25
2022-10-21T14:56:58.002Z,8.40
2022-10-21T14:59:19.165Z,7.05
2022-10-21T15:01:25.471Z,8.82
2022-10-21T15:03:40.771Z,11.98
2022-10-21T15:05:49.831Z,13.20
2022-10-21T15:07:56.934Z,12.10
2022-10-21T15:10:15.834Z,9.75
2022-10-21T15:12:25.298Z,8.48
2022-10-21T15:14:34.974Z,11.15
2022-10-21T15:16:40.328Z,7.13
2022-10-21T15:18:49.001Z,9.13
2022-10-21T15:20:57.178Z,8.68
2022-10-21T15:23:12.850Z,6.97
2022-10-21T15:25:25.444Z,24.20
2022-10-21T15:27:52.616Z,5.50
2022-10-21T15:30:06.567Z,4.40
2022-10-21T15:32:20.029Z,8.68
2022-10-21T15:34:26.282Z,5.60
2022-10-21T15:36:31.063Z,4.95
2022-10-21T15:38:35.793Z,3.55
2022-10-21T15:40:40.647Z,5.13
2022-10-21T15:42:46.407Z,5.57
2022-10-21T15:44:52.709Z,7.43
2022-10-21T15:47:02.670Z,5.80
2022-10-21T15:49:18.172Z,6.43
2022-10-21T15:51:23.118Z,5.65
2022-10-21T15:53:27.992Z,6.75
2022-10-21T15:55:38.051Z,7.30
2022-10-21T15:57:44.625Z,9.57
2022-10-21T15:59:50.193Z,10.32
2022-10-21T16:01:56.079Z,8.23
2022-10-21T16:04:04.298Z,7.90
2022-10-21T16:06:09.266Z,8.02
2022-10-21T16:08:15.384Z,8.35
2022-10-21T16:10:23.736Z,7.20
2022-10-21T16:12:30.468Z,7.63
2022-10-21T16:14:35.273Z,7.05
2022-10-21T16:16:42.110Z,10.75
2022-10-21T16:18:46.893Z,7.07
2022-10-21T16:20:55.119Z,9.75
2022-10-21T16:23:02.977Z,8.30
2022-10-21T16:25:09.299Z,7.95
2022-10-21T16:27:26.352Z,10.10
2022-10-21T16:29:36.106Z,10.48
2022-10-21T16:31:41.059Z,6.55
2022-10-21T16:33:46.340Z,5.93
2022-10-21T16:35:54.048Z,7.95
2022-10-21T16:37:58.985Z,8.77
2022-10-21T16:40:04.084Z,9.25
2022-10-21T16:44:13.417Z,10.05
2022-10-21T16:46:25.123Z,11.50
2022-10-21T16:48:30.083Z,12.30
2022-10-21T16:50:40.747Z,13.25
2022-10-21T16:52:48.246Z,10.63
2022-10-21T16:54:53.080Z,10.55
2022-10-21T16:56:57.809Z,10.65
2022-10-21T16:59:02.583Z,11.43
2022-10-21T17:01:08.795Z,10.65
2022-10-21T17:03:14.055Z,12.43
2022-10-21T17:05:18.898Z,11.65
2022-10-21T17:07:23.645Z,11.32
2022-10-21T17:09:31.015Z,11.07
2022-10-21T17:11:38.846Z,14.20
2022-10-21T17:13:44.131Z,17.80
2022-10-21T17:17:53.381Z,14.02
2022-10-21T17:19:58.176Z,14.27
2022-10-21T17:22:03.013Z,16.42
2022-10-21T17:24:08.369Z,14.43
2022-10-21T17:26:15.844Z,9.90
2022-10-21T17:28:20.799Z,13.40
2022-10-21T17:30:26.830Z,10.80
2022-10-21T17:32:31.595Z,11.15
2022-10-21T17:34:40.024Z,9.52
2022-10-21T17:36:44.745Z,12.25
2022-10-21T17:38:50.001Z,12.60
2022-10-21T17:40:54.715Z,11.05
2022-10-21T17:43:02.250Z,11.85
2022-10-21T17:45:07.975Z,11.43
2022-10-21T17:47:14.899Z,9.18
2022-10-21T17:49:19.636Z,7.60
2022-10-21T17:51:25.864Z,8.85
2022-10-21T17:53:32.389Z,8.80
2022-10-21T17:55:37.160Z,14.52
2022-10-21T17:57:42.011Z,6.65
2022-10-21T17:59:52.273Z,7.03
2022-10-21T18:01:57.061Z,7.25
2022-10-21T18:04:02.040Z,6.78
2022-10-21T18:06:09.855Z,6.88
2022-10-21T18:08:14.573Z,6.85
2022-10-21T18:10:19.469Z,7.38
2022-10-21T18:12:24.668Z,6.20
2022-10-21T18:16:37.116Z,5.75
2022-10-21T18:20:47.739Z,6.22
2022-10-21T18:24:59.274Z,8.55
2022-10-21T18:27:04.013Z,6.68
2022-10-21T18:29:08.828Z,5.15
2022-10-21T18:31:15.545Z,6.20
2022-10-21T18:33:23.149Z,5.07
2022-10-21T18:35:28.388Z,5.13
2022-10-21T18:37:34.123Z,4.28
2022-10-21T18:39:38.889Z,6.18
2022-10-21T18:41:44.392Z,3.80
2022-10-21T18:43:50.164Z,4.25
2022-10-21T18:45:54.916Z,4.75
2022-10-21T18:47:59.758Z,4.20
2022-10-21T18:50:09.272Z,6.28
2022-10-21T18:52:14.189Z,5.88
2022-10-21T18:54:18.954Z,5.18
2022-10-21T18:56:25.786Z,7.38
2022-10-21T18:58:33.100Z,4.53
2022-10-21T19:00:37.969Z,5.32
2022-10-21T19:02:42.744Z,7.65
2022-10-21T19:04:47.670Z,7.93
2022-10-21T19:06:55.051Z,6.93
2022-10-21T19:09:01.206Z,8.80
2022-10-21T19:11:06.093Z,8.60
2022-10-21T19:13:10.839Z,7.05
2022-10-21T19:15:15.641Z,6.25
2022-10-21T19:17:20.476Z,7.75
2022-10-21T19:19:38.566Z,4.90
2022-10-21T19:21:44.881Z,6.18
2022-10-21T19:23:52.629Z,6.25
2022-10-21T19:25:57.417Z,7.20
2022-10-21T19:28:03.374Z,9.20
2022-10-21T19:30:09.022Z,5.28
2022-10-21T19:32:16.796Z,5.68
2022-10-21T19:34:23.162Z,5.18
2022-10-21T19:36:30.995Z,5.25
2022-10-21T19:38:44.118Z,12.13
2022-10-21T19:40:52.385Z,10.13
2022-10-21T19:42:57.172Z,10.13
2022-10-21T19:45:02.107Z,8.90
2022-10-21T19:47:06.981Z,7.55
2022-10-21T19:49:14.270Z,9.88
2022-10-21T19:51:20.873Z,8.35
2022-10-21T19:53:27.846Z,8.30
2022-10-21T19:55:32.546Z,7.95
2022-10-21T19:57:40.039Z,7.57
2022-10-21T19:59:44.790Z,6.45
2022-10-21T20:01:49.663Z,6.35
2022-10-21T20:03:55.989Z,8.55
2022-10-21T20:06:00.751Z,7.68
2022-10-21T20:08:05.515Z,7.07
2022-10-21T20:10:11.374Z,6.97
2022-10-21T20:12:16.096Z,7.93
2022-10-21T20:14:23.692Z,7.72
2022-10-21T20:16:31.072Z,7.80
2022-10-21T20:18:35.945Z,7.72
2022-10-21T20:20:43.837Z,6.60
2022-10-21T20:22:48.626Z,6.97
2022-10-21T20:24:54.235Z,9.30
2022-10-21T20:27:01.403Z,6.22
2022-10-21T20:29:07.414Z,5.82
2022-10-21T20:31:16.645Z,8.10
2022-10-21T20:33:21.351Z,8.48
2022-10-21T20:35:26.291Z,15.20
2022-10-21T20:37:31.111Z,8.15
2022-10-21T20:39:35.871Z,6.38
2022-10-21T20:41:40.874Z,6.82
2022-10-21T20:43:46.578Z,6.28
2022-10-21T20:45:51.297Z,8.18
2022-10-21T20:47:58.772Z,9.88
2022-10-21T20:50:03.460Z,9.90
2022-10-21T20:52:08.210Z,6.30
2022-10-21T20:54:16.169Z,5.40
2022-10-21T20:56:22.062Z,7.88
2022-10-21T20:58:27.182Z,6.72
2022-10-21T21:02:36.653Z,7.18
2022-10-21T21:04:44.039Z,8.55
2022-10-21T21:06:50.044Z,10.07
2022-10-21T21:09:22.485Z,8.80
2022-10-21T21:11:21.009Z,7.97
2022-10-21T21:13:25.846Z,7.85
2022-10-21T21:15:30.611Z,9.90
2022-10-21T21:17:35.393Z,9.75
2022-10-21T21:19:43.877Z,10.07
2022-10-21T21:21:48.575Z,8.85
2022-10-21T21:23:53.865Z,8.75
2022-10-21T21:26:03.745Z,8.02
2022-10-21T21:28:08.510Z,7.57
2022-10-21T21:30:14.308Z,8.23
2022-10-21T21:32:19.080Z,8.23
2022-10-21T21:34:23.881Z,9.05
2022-10-21T21:36:34.172Z,9.43
2022-10-21T21:38:38.961Z,7.93
2022-10-21T21:40:46.374Z,7.00
2022-10-21T21:42:51.220Z,6.43
2022-10-21T21:44:55.978Z,7.43
2022-10-21T21:47:00.782Z,9.13
2022-10-21T21:49:07.391Z,6.13
2022-10-21T21:51:12.856Z,6.82
2022-10-21T21:53:24.973Z,8.63
2022-10-21T21:55:32.478Z,7.77
2022-10-21T21:57:37.229Z,8.98
2022-10-21T21:59:42.022Z,9.13
2022-10-21T22:01:46.744Z,9.00
2022-10-21T22:03:53.055Z,10.75
2022-10-21T22:05:57.752Z,7.95
2022-10-21T22:08:03.501Z,6.90
2022-10-21T22:10:11.797Z,8.23
2022-10-21T22:12:17.845Z,9.07
2022-10-21T22:14:23.537Z,8.45
2022-10-21T22:16:31.734Z,7.40
2022-10-21T22:18:36.578Z,7.93
2022-10-21T22:20:41.602Z,12.18
2022-10-21T22:22:46.692Z,6.97
2022-10-21T22:24:51.440Z,13.07
2022-10-21T22:26:58.822Z,16.55
2022-10-21T22:29:03.598Z,14.93
2022-10-21T22:31:10.863Z,14.45
2022-10-21T22:33:15.638Z,14.70
2022-10-21T22:35:20.511Z,14.52
2022-10-21T22:37:25.615Z,11.15
2022-10-21T22:39:30.442Z,9.93
2022-10-21T22:41:35.311Z,7.20
2022-10-21T22:43:43.085Z,7.00
2022-10-21T22:45:48.214Z,8.68
2022-10-21T22:47:53.141Z,6.60
2022-10-21T22:49:57.929Z,4.97
2022-10-21T22:52:02.715Z,7.10
2022-10-21T22:54:15.144Z,6.40
2022-10-21T22:56:30.278Z,8.27
2022-10-21T22:58:35.160Z,5.38
2022-10-21T23:00:42.858Z,6.68
2022-10-21T23:02:47.624Z,8.15
2022-10-21T23:04:52.348Z,8.02
2022-10-21T23:06:57.161Z,5.75
2022-10-21T23:09:02.836Z,6.50
2022-10-21T23:11:07.926Z,14.25
2022-10-21T23:13:12.657Z,8.35
2022-10-21T23:15:17.364Z,5.57
2022-10-21T23:17:25.691Z,5.32
2022-10-21T23:19:30.496Z,8.73
2022-10-21T23:21:35.264Z,7.32
2022-10-21T23:23:40.060Z,5.25
2022-10-21T23:25:44.803Z,8.38
2022-10-21T23:27:49.552Z,7.13
2022-10-21T23:29:54.243Z,7.63
2022-10-21T23:34:07.120Z,6.05
2022-10-21T23:36:12.004Z,9.35
2022-10-21T23:38:16.724Z,6.63
2022-10-21T23:40:21.636Z,6.78
2022-10-21T23:42:28.003Z,6.38
2022-10-21T23:44:32.850Z,6.10
2022-10-21T23:46:38.086Z,4.40
2022-10-21T23:50:50.021Z,5.38
2022-10-21T23:52:54.797Z,7.07
2022-10-21T23:54:59.685Z,6.72
2022-10-21T23:57:04.490Z,6.18
2022-10-21T23:59:09.406Z,8.45
